sensor_id;sensor_type;location;lat;lon;timestamp;pressure;altitude;pressure_sealevel;temperature;humidity
78149;BME280;67396;42.664;23.382;2024-02-15T00:01:09;95381.44;;;2.96;64.69
78149;BME280;67396;42.664;23.382;2024-02-15T00:03:35;95378.09;;;2.90;64.94
78149;BME280;67396;42.664;23.382;2024-02-15T00:06:01;95369.94;;;2.90;64.75
78149;BME280;67396;42.664;23.382;2024-02-15T00:08:29;95368.56;;;2.84;65.36
78149;BME280;67396;42.664;23.382;2024-02-15T00:10:55;95375.72;;;2.89;64.73
78149;BME280;67396;42.664;23.382;2024-02-15T00:13:21;95381.91;;;2.98;64.80
78149;BME280;67396;42.664;23.382;2024-02-15T00:15:48;95387.50;;;2.93;64.33
78149;BME280;67396;42.664;23.382;2024-02-15T00:18:15;95389.09;;;2.94;64.32
78149;BME280;67396;42.664;23.382;2024-02-15T00:20:41;95387.94;;;3.03;64.03
78149;BME280;67396;42.664;23.382;2024-02-15T00:23:09;95383.84;;;2.89;64.34
78149;BME280;67396;42.664;23.382;2024-02-15T00:25:34;95385.09;;;2.91;64.14
78149;BME280;67396;42.664;23.382;2024-02-15T00:28:01;95385.84;;;3.00;63.99
78149;BME280;67396;42.664;23.382;2024-02-15T00:30:27;95389.88;;;2.94;64.10
78149;BME280;67396;42.664;23.382;2024-02-15T00:32:53;95387.50;;;2.93;64.67
78149;BME280;67396;42.664;23.382;2024-02-15T00:35:19;95384.31;;;2.91;63.95
78149;BME280;67396;42.664;23.382;2024-02-15T00:37:44;95390.09;;;2.81;64.66
78149;BME280;67396;42.664;23.382;2024-02-15T00:40:10;95390.56;;;2.83;64.28
78149;BME280;67396;42.664;23.382;2024-02-15T00:42:36;95393.94;;;2.80;64.50
78149;BME280;67396;42.664;23.382;2024-02-15T00:45:03;95384.22;;;2.79;65.16
78149;BME280;67396;42.664;23.382;2024-02-15T00:47:30;95403.97;;;2.79;64.70
78149;BME280;67396;42.664;23.382;2024-02-15T00:49:56;95385.31;;;2.78;64.63
78149;BME280;67396;42.664;23.382;2024-02-15T00:52:22;95387.41;;;2.81;64.56
78149;BME280;67396;42.664;23.382;2024-02-15T00:54:48;95381.97;;;2.81;64.68
78149;BME280;67396;42.664;23.382;2024-02-15T00:57:14;95381.22;;;2.72;64.90
78149;BME280;67396;42.664;23.382;2024-02-15T00:59:39;95384.84;;;2.76;65.36
78149;BME280;67396;42.664;23.382;2024-02-15T01:02:05;95393.75;;;2.85;64.49
78149;BME280;67396;42.664;23.382;2024-02-15T01:04:30;95395.19;;;2.82;64.47
78149;BME280;67396;42.664;23.382;2024-02-15T01:06:56;95395.06;;;2.79;64.17
78149;BME280;67396;42.664;23.382;2024-02-15T01:09:22;95385.78;;;2.88;64.13
78149;BME280;67396;42.664;23.382;2024-02-15T01:11:48;95387.84;;;2.83;63.83
78149;BME280;67396;42.664;23.382;2024-02-15T01:14:14;95393.47;;;2.78;64.04
78149;BME280;67396;42.664;23.382;2024-02-15T01:16:41;95387.84;;;2.83;63.88
78149;BME280;67396;42.664;23.382;2024-02-15T01:19:07;95388.19;;;2.81;64.26
78149;BME280;67396;42.664;23.382;2024-02-15T01:21:32;95380.16;;;2.93;64.04
78149;BME280;67396;42.664;23.382;2024-02-15T01:23:59;95375.53;;;2.94;63.67
78149;BME280;67396;42.664;23.382;2024-02-15T01:26:26;95384.19;;;2.87;64.02
78149;BME280;67396;42.664;23.382;2024-02-15T01:28:53;95379.56;;;2.88;63.96
78149;BME280;67396;42.664;23.382;2024-02-15T01:31:18;95388.31;;;2.85;64.04
78149;BME280;67396;42.664;23.382;2024-02-15T01:33:44;95374.78;;;2.85;63.80
78149;BME280;67396;42.664;23.382;2024-02-15T01:36:16;95378.66;;;2.67;64.33
78149;BME280;67396;42.664;23.382;2024-02-15T01:38:43;95391.91;;;2.59;64.30
78149;BME280;67396;42.664;23.382;2024-02-15T01:41:09;95383.44;;;2.70;64.98
78149;BME280;67396;42.664;23.382;2024-02-15T01:43:35;95379.13;;;2.69;64.44
78149;BME280;67396;42.664;23.382;2024-02-15T01:46:07;95378.16;;;2.73;64.27
78149;BME280;67396;42.664;23.382;2024-02-15T01:48:33;95381.88;;;2.60;64.46
78149;BME280;67396;42.664;23.382;2024-02-15T01:50:59;95384.78;;;2.55;65.43
78149;BME280;67396;42.664;23.382;2024-02-15T01:53:25;95369.59;;;2.62;64.84
78149;BME280;67396;42.664;23.382;2024-02-15T01:55:53;95378.84;;;2.61;64.75
78149;BME280;67396;42.664;23.382;2024-02-15T01:58:20;95383.16;;;2.62;64.61
78149;BME280;67396;42.664;23.382;2024-02-15T02:00:47;95385.47;;;2.81;64.44
78149;BME280;67396;42.664;23.382;2024-02-15T02:03:14;95385.66;;;2.68;64.78
78149;BME280;67396;42.664;23.382;2024-02-15T02:05:42;95382.81;;;2.73;64.10
78149;BME280;67396;42.664;23.382;2024-02-15T02:08:08;95390.75;;;2.78;64.35
78149;BME280;67396;42.664;23.382;2024-02-15T02:10:37;95383.88;;;2.80;64.29
78149;BME280;67396;42.664;23.382;2024-02-15T02:13:02;95388.22;;;2.73;64.28
78149;BME280;67396;42.664;23.382;2024-02-15T02:15:28;95384.97;;;2.88;63.96
78149;BME280;67396;42.664;23.382;2024-02-15T02:17:56;95386.75;;;2.75;64.00
78149;BME280;67396;42.664;23.382;2024-02-15T02:20:21;95390.47;;;2.71;64.67
78149;BME280;67396;42.664;23.382;2024-02-15T02:22:50;95392.06;;;2.72;64.42
78149;BME280;67396;42.664;23.382;2024-02-15T02:25:20;95399.06;;;2.64;64.83
78149;BME280;67396;42.664;23.382;2024-02-15T02:27:47;95390.63;;;2.57;65.18
78149;BME280;67396;42.664;23.382;2024-02-15T02:30:14;95391.75;;;2.56;64.70
78149;BME280;67396;42.664;23.382;2024-02-15T02:32:44;95401.34;;;2.53;65.25
78149;BME280;67396;42.664;23.382;2024-02-15T02:35:11;95409.00;;;2.51;64.82
78149;BME280;67396;42.664;23.382;2024-02-15T02:37:39;95406.78;;;2.53;65.26
78149;BME280;67396;42.664;23.382;2024-02-15T02:40:05;95414.41;;;2.51;65.36
78149;BME280;67396;42.664;23.382;2024-02-15T02:42:36;95402.47;;;2.52;65.26
78149;BME280;67396;42.664;23.382;2024-02-15T02:45:02;95402.44;;;2.61;64.97
78149;BME280;67396;42.664;23.382;2024-02-15T02:47:27;95404.66;;;2.59;64.56
78149;BME280;67396;42.664;23.382;2024-02-15T02:49:53;95402.94;;;2.54;65.13
78149;BME280;67396;42.664;23.382;2024-02-15T02:52:18;95404.50;;;2.55;64.58
78149;BME280;67396;42.664;23.382;2024-02-15T02:54:44;95410.88;;;2.68;64.64
78149;BME280;67396;42.664;23.382;2024-02-15T02:57:09;95412.78;;;2.68;64.58
78149;BME280;67396;42.664;23.382;2024-02-15T02:59:34;95423.31;;;2.60;65.35
78149;BME280;67396;42.664;23.382;2024-02-15T03:02:01;95427.16;;;2.59;64.59
78149;BME280;67396;42.664;23.382;2024-02-15T03:04:29;95418.38;;;2.62;64.89
78149;BME280;67396;42.664;23.382;2024-02-15T03:06:54;95419.19;;;2.63;64.76
78149;BME280;67396;42.664;23.382;2024-02-15T03:09:22;95421.09;;;2.62;64.99
78149;BME280;67396;42.664;23.382;2024-02-15T03:11:48;95412.19;;;2.53;65.38
78149;BME280;67396;42.664;23.382;2024-02-15T03:14:14;95414.72;;;2.58;65.22
78149;BME280;67396;42.664;23.382;2024-02-15T03:16:40;95417.09;;;2.69;64.99
78149;BME280;67396;42.664;23.382;2024-02-15T03:19:05;95426.56;;;2.45;65.53
78149;BME280;67396;42.664;23.382;2024-02-15T03:21:31;95426.06;;;2.43;65.43
78149;BME280;67396;42.664;23.382;2024-02-15T03:23:57;95427.38;;;2.37;65.63
78149;BME280;67396;42.664;23.382;2024-02-15T03:26:30;95428.13;;;2.46;65.63
78149;BME280;67396;42.664;23.382;2024-02-15T03:29:01;95432.09;;;2.49;65.75
78149;BME280;67396;42.664;23.382;2024-02-15T03:31:27;95433.91;;;2.36;66.29
78149;BME280;67396;42.664;23.382;2024-02-15T03:33:52;95424.00;;;2.32;65.63
78149;BME280;67396;42.664;23.382;2024-02-15T03:36:19;95421.31;;;2.23;66.42
78149;BME280;67396;42.664;23.382;2024-02-15T03:38:45;95426.91;;;2.18;66.29
78149;BME280;67396;42.664;23.382;2024-02-15T03:41:12;95424.81;;;2.23;66.62
78149;BME280;67396;42.664;23.382;2024-02-15T03:43:37;95419.59;;;2.10;66.87
78149;BME280;67396;42.664;23.382;2024-02-15T03:46:04;95422.13;;;2.15;66.90
78149;BME280;67396;42.664;23.382;2024-02-15T03:48:29;95423.88;;;2.19;66.55
78149;BME280;67396;42.664;23.382;2024-02-15T03:50:57;95413.97;;;2.23;66.36
78149;BME280;67396;42.664;23.382;2024-02-15T03:53:23;95421.63;;;2.21;66.62
78149;BME280;67396;42.664;23.382;2024-02-15T03:55:49;95419.72;;;2.13;66.87
78149;BME280;67396;42.664;23.382;2024-02-15T03:58:18;95410.50;;;2.06;67.58
78149;BME280;67396;42.664;23.382;2024-02-15T04:00:45;95418.63;;;2.06;67.64
78149;BME280;67396;42.664;23.382;2024-02-15T04:03:10;95414.00;;;2.06;67.21
78149;BME280;67396;42.664;23.382;2024-02-15T04:05:36;95418.63;;;2.06;66.99
78149;BME280;67396;42.664;23.382;2024-02-15T04:08:01;95425.63;;;2.07;67.12
78149;BME280;67396;42.664;23.382;2024-02-15T04:10:27;95422.91;;;2.15;66.96
78149;BME280;67396;42.664;23.382;2024-02-15T04:12:53;95422.13;;;2.06;67.85
78149;BME280;67396;42.664;23.382;2024-02-15T04:15:19;95427.22;;;2.08;67.04
78149;BME280;67396;42.664;23.382;2024-02-15T04:17:44;95424.81;;;2.15;67.04
78149;BME280;67396;42.664;23.382;2024-02-15T04:20:10;95424.66;;;2.03;66.92
78149;BME280;67396;42.664;23.382;2024-02-15T04:22:37;95431.34;;;1.97;67.16
78149;BME280;67396;42.664;23.382;2024-02-15T04:25:05;95427.84;;;1.96;67.44
78149;BME280;67396;42.664;23.382;2024-02-15T04:27:31;95430.72;;;2.00;67.53
78149;BME280;67396;42.664;23.382;2024-02-15T04:29:57;95423.72;;;1.99;67.05
78149;BME280;67396;42.664;23.382;2024-02-15T04:32:22;95425.31;;;2.00;67.13
78149;BME280;67396;42.664;23.382;2024-02-15T04:34:49;95438.69;;;2.05;67.01
78149;BME280;67396;42.664;23.382;2024-02-15T04:37:14;95434.84;;;2.06;67.13
78149;BME280;67396;42.664;23.382;2024-02-15T04:39:42;95439.34;;;2.10;67.20
78149;BME280;67396;42.664;23.382;2024-02-15T04:42:07;95441.25;;;2.10;67.47
78149;BME280;67396;42.664;23.382;2024-02-15T04:44:38;95437.56;;;2.06;67.22
78149;BME280;67396;42.664;23.382;2024-02-15T04:47:04;95448.25;;;2.11;67.12
78149;BME280;67396;42.664;23.382;2024-02-15T04:49:30;95444.56;;;2.07;67.12
78149;BME280;67396;42.664;23.382;2024-02-15T04:51:55;95451.72;;;2.03;67.21
78149;BME280;67396;42.664;23.382;2024-02-15T04:54:26;95454.59;;;1.89;67.63
78149;BME280;67396;42.664;23.382;2024-02-15T04:56:52;95462.91;;;1.93;68.08
78149;BME280;67396;42.664;23.382;2024-02-15T04:59:19;95462.25;;;1.96;68.01
78149;BME280;67396;42.664;23.382;2024-02-15T05:01:47;95461.75;;;1.94;67.95
78149;BME280;67396;42.664;23.382;2024-02-15T05:04:14;95466.84;;;1.95;68.12
78149;BME280;67396;42.664;23.382;2024-02-15T05:06:40;95462.25;;;1.96;67.95
78149;BME280;67396;42.664;23.382;2024-02-15T05:09:06;95468.63;;;2.00;67.84
78149;BME280;67396;42.664;23.382;2024-02-15T05:11:38;95476.56;;;1.87;67.66
78149;BME280;67396;42.664;23.382;2024-02-15T05:14:06;95472.56;;;1.85;68.23
78149;BME280;67396;42.664;23.382;2024-02-15T05:16:35;95479.44;;;1.82;68.48
78149;BME280;67396;42.664;23.382;2024-02-15T05:19:03;95471.16;;;1.87;68.40
78149;BME280;67396;42.664;23.382;2024-02-15T05:21:30;95486.13;;;1.94;68.08
78149;BME280;67396;42.664;23.382;2024-02-15T05:23:55;95478.66;;;1.91;69.17
78149;BME280;67396;42.664;23.382;2024-02-15T05:26:22;95483.28;;;1.99;68.99
78149;BME280;67396;42.664;23.382;2024-02-15T05:28:52;95477.88;;;2.16;67.18
78149;BME280;67396;42.664;23.382;2024-02-15T05:31:18;95481.84;;;2.01;67.54
78149;BME280;67396;42.664;23.382;2024-02-15T05:33:48;95484.22;;;1.94;67.82
78149;BME280;67396;42.664;23.382;2024-02-15T05:36:15;95488.38;;;2.00;68.20
78149;BME280;67396;42.664;23.382;2024-02-15T05:38:41;95495.22;;;1.98;70.29
78149;BME280;67396;42.664;23.382;2024-02-15T05:41:07;95498.41;;;2.00;69.90
78149;BME280;67396;42.664;23.382;2024-02-15T05:43:34;95496.31;;;1.97;68.32
78149;BME280;67396;42.664;23.382;2024-02-15T05:46:05;95501.13;;;2.00;68.22
78149;BME280;67396;42.664;23.382;2024-02-15T05:48:32;95492.00;;;1.87;67.67
78149;BME280;67396;42.664;23.382;2024-02-15T05:51:01;95492.00;;;1.78;68.70
78149;BME280;67396;42.664;23.382;2024-02-15T05:53:26;95496.00;;;1.81;68.46
78149;BME280;67396;42.664;23.382;2024-02-15T05:55:52;95489.28;;;1.78;68.61
78149;BME280;67396;42.664;23.382;2024-02-15T05:58:18;95502.50;;;1.80;68.45
78149;BME280;67396;42.664;23.382;2024-02-15T06:00:44;95495.81;;;1.86;68.56
78149;BME280;67396;42.664;23.382;2024-02-15T06:03:19;95509.69;;;1.84;68.14
78149;BME280;67396;42.664;23.382;2024-02-15T06:05:48;95513.66;;;1.78;68.02
78149;BME280;67396;42.664;23.382;2024-02-15T06:08:14;95510.31;;;1.81;68.96
78149;BME280;67396;42.664;23.382;2024-02-15T06:10:39;95518.94;;;1.92;69.58
78149;BME280;67396;42.664;23.382;2024-02-15T06:13:08;95532.34;;;2.32;73.54
78149;BME280;67396;42.664;23.382;2024-02-15T06:15:36;95528.03;;;2.56;73.43
78149;BME280;67396;42.664;23.382;2024-02-15T06:18:02;95537.44;;;2.16;67.52
78149;BME280;67396;42.664;23.382;2024-02-15T06:20:34;95524.88;;;2.46;67.28
78149;BME280;67396;42.664;23.382;2024-02-15T06:23:00;95537.28;;;2.30;66.80
78149;BME280;67396;42.664;23.382;2024-02-15T06:25:30;95543.19;;;2.23;67.09
78149;BME280;67396;42.664;23.382;2024-02-15T06:27:56;95538.25;;;2.16;67.22
78149;BME280;67396;42.664;23.382;2024-02-15T06:30:30;95538.72;;;2.27;67.21
78149;BME280;67396;42.664;23.382;2024-02-15T06:33:14;95542.56;;;2.26;67.21
78149;BME280;67396;42.664;23.382;2024-02-15T06:35:58;95543.16;;;2.06;67.29
78149;BME280;67396;42.664;23.382;2024-02-15T06:38:42;95541.56;;;2.22;67.29
78149;BME280;67396;42.664;23.382;2024-02-15T06:41:26;95549.19;;;2.03;67.79
78149;BME280;67396;42.664;23.382;2024-02-15T06:43:53;95550.66;;;2.09;68.23
78149;BME280;67396;42.664;23.382;2024-02-15T06:46:19;95558.47;;;2.10;68.00
78149;BME280;67396;42.664;23.382;2024-02-15T06:48:44;95561.31;;;2.14;67.36
78149;BME280;67396;42.664;23.382;2024-02-15T06:51:13;95549.41;;;2.23;69.90
78149;BME280;67396;42.664;23.382;2024-02-15T06:53:40;95542.88;;;2.33;67.41
78149;BME280;67396;42.664;23.382;2024-02-15T06:56:09;95547.19;;;2.43;67.10
78149;BME280;67396;42.664;23.382;2024-02-15T06:58:35;95544.47;;;2.34;66.93
78149;BME280;67396;42.664;23.382;2024-02-15T07:01:01;95552.09;;;2.32;66.66
78149;BME280;67396;42.664;23.382;2024-02-15T07:03:28;95544.94;;;2.19;67.49
78149;BME280;67396;42.664;23.382;2024-02-15T07:05:55;95542.53;;;2.17;67.43
78149;BME280;67396;42.664;23.382;2024-02-15T07:08:21;95543.16;;;2.75;66.61
78149;BME280;67396;42.664;23.382;2024-02-15T07:10:50;95541.84;;;3.15;64.26
78149;BME280;67396;42.664;23.382;2024-02-15T07:13:17;95543.44;;;3.54;62.94
78149;BME280;67396;42.664;23.382;2024-02-15T07:15:42;95542.28;;;3.64;61.73
78149;BME280;67396;42.664;23.382;2024-02-15T07:18:09;95547.75;;;3.93;61.52
78149;BME280;67396;42.664;23.382;2024-02-15T07:20:38;95547.00;;;3.84;66.37
78149;BME280;67396;42.664;23.382;2024-02-15T07:23:05;95543.88;;;3.65;62.05
78149;BME280;67396;42.664;23.382;2024-02-15T07:25:31;95554.88;;;3.30;62.97
78149;BME280;67396;42.664;23.382;2024-02-15T07:27:56;95554.28;;;3.16;63.37
78149;BME280;67396;42.664;23.382;2024-02-15T07:30:22;95550.13;;;3.10;63.52
78149;BME280;67396;42.664;23.382;2024-02-15T07:32:49;95551.44;;;3.04;64.41
78149;BME280;67396;42.664;23.382;2024-02-15T07:35:14;95546.84;;;2.79;64.95
78149;BME280;67396;42.664;23.382;2024-02-15T07:38:02;95546.34;;;2.85;64.35
78149;BME280;67396;42.664;23.382;2024-02-15T07:40:30;95545.88;;;2.66;65.09
78149;BME280;67396;42.664;23.382;2024-02-15T07:42:56;95541.94;;;2.55;65.05
78149;BME280;67396;42.664;23.382;2024-02-15T07:45:23;95538.25;;;2.68;65.55
78149;BME280;67396;42.664;23.382;2024-02-15T07:47:48;95546.94;;;3.08;64.02
78149;BME280;67396;42.664;23.382;2024-02-15T07:50:16;95537.94;;;3.71;62.79
78149;BME280;67396;42.664;23.382;2024-02-15T07:52:46;95529.50;;;4.65;60.16
78149;BME280;67396;42.664;23.382;2024-02-15T07:55:11;95532.25;;;4.98;57.34
78149;BME280;67396;42.664;23.382;2024-02-15T07:57:40;95529.69;;;4.80;57.90
78149;BME280;67396;42.664;23.382;2024-02-15T08:00:07;95530.97;;;4.83;57.67
78149;BME280;67396;42.664;23.382;2024-02-15T08:02:42;95526.53;;;5.23;57.18
78149;BME280;67396;42.664;23.382;2024-02-15T08:05:09;95538.16;;;5.45;55.76
78149;BME280;67396;42.664;23.382;2024-02-15T08:07:41;95526.28;;;5.61;55.25
78149;BME280;67396;42.664;23.382;2024-02-15T08:10:07;95526.97;;;5.71;55.41
78149;BME280;67396;42.664;23.382;2024-02-15T08:12:45;95525.03;;;5.71;55.12
78149;BME280;67396;42.664;23.382;2024-02-15T08:15:12;95527.88;;;5.87;54.26
78149;BME280;67396;42.664;23.382;2024-02-15T08:17:39;95525.72;;;5.92;53.98
78149;BME280;67396;42.664;23.382;2024-02-15T08:20:12;95524.94;;;6.04;54.57
78149;BME280;67396;42.664;23.382;2024-02-15T08:22:39;95520.38;;;6.32;53.40
78149;BME280;67396;42.664;23.382;2024-02-15T08:25:10;95524.75;;;6.49;53.53
78149;BME280;67396;42.664;23.382;2024-02-15T08:27:40;95522.84;;;6.50;51.90
78149;BME280;67396;42.664;23.382;2024-02-15T08:30:15;95513.41;;;6.47;53.03
78149;BME280;67396;42.664;23.382;2024-02-15T08:32:41;95518.03;;;6.59;51.71
78149;BME280;67396;42.664;23.382;2024-02-15T08:35:13;95522.91;;;6.93;51.11
78149;BME280;67396;42.664;23.382;2024-02-15T08:37:39;95519.41;;;6.53;52.21
78149;BME280;67396;42.664;23.382;2024-02-15T08:40:08;95526.50;;;6.17;53.29
78149;BME280;67396;42.664;23.382;2024-02-15T08:42:40;95519.16;;;5.93;53.41
78149;BME280;67396;42.664;23.382;2024-02-15T08:45:07;95524.88;;;5.43;55.40
78149;BME280;67396;42.664;23.382;2024-02-15T08:47:36;95520.06;;;5.16;56.78
78149;BME280;67396;42.664;23.382;2024-02-15T08:50:03;95520.72;;;5.01;56.35
78149;BME280;67396;42.664;23.382;2024-02-15T08:52:29;95523.94;;;4.94;57.22
78149;BME280;67396;42.664;23.382;2024-02-15T08:54:54;95518.66;;;4.98;56.93
78149;BME280;67396;42.664;23.382;2024-02-15T08:57:23;95510.00;;;4.83;57.07
78149;BME280;67396;42.664;23.382;2024-02-15T08:59:49;95519.47;;;4.77;56.96
78149;BME280;67396;42.664;23.382;2024-02-15T09:02:17;95513.69;;;4.79;57.83
78149;BME280;67396;42.664;23.382;2024-02-15T09:04:43;95508.47;;;4.74;57.40
78149;BME280;67396;42.664;23.382;2024-02-15T09:07:09;95507.00;;;4.76;57.77
78149;BME280;67396;42.664;23.382;2024-02-15T09:09:35;95511.38;;;4.69;57.05
78149;BME280;67396;42.664;23.382;2024-02-15T09:12:02;95517.38;;;4.62;57.32
78149;BME280;67396;42.664;23.382;2024-02-15T09:14:35;95509.22;;;4.41;57.51
78149;BME280;67396;42.664;23.382;2024-02-15T09:17:02;95508.16;;;4.54;58.09
78149;BME280;67396;42.664;23.382;2024-02-15T09:19:36;95503.78;;;4.62;58.08
78149;BME280;67396;42.664;23.382;2024-02-15T09:22:02;95507.28;;;4.83;57.66
78149;BME280;67396;42.664;23.382;2024-02-15T09:24:32;95495.03;;;4.89;57.95
78149;BME280;67396;42.664;23.382;2024-02-15T09:27:02;95509.13;;;5.04;56.46
78149;BME280;67396;42.664;23.382;2024-02-15T09:29:30;95501.22;;;5.11;55.97
78149;BME280;67396;42.664;23.382;2024-02-15T09:31:58;95503.84;;;5.19;56.40
78149;BME280;67396;42.664;23.382;2024-02-15T09:34:24;95502.47;;;5.13;55.28
78149;BME280;67396;42.664;23.382;2024-02-15T09:36:50;95501.38;;;4.93;56.54
78149;BME280;67396;42.664;23.382;2024-02-15T09:39:16;95497.53;;;4.82;56.41
78149;BME280;67396;42.664;23.382;2024-02-15T09:41:43;95496.41;;;4.83;56.18
78149;BME280;67396;42.664;23.382;2024-02-15T09:44:09;95496.63;;;4.90;55.91
78149;BME280;67396;42.664;23.382;2024-02-15T09:46:36;95492.78;;;4.91;56.35
78149;BME280;67396;42.664;23.382;2024-02-15T09:49:01;95499.13;;;4.96;56.07
78149;BME280;67396;42.664;23.382;2024-02-15T09:51:29;95489.44;;;5.07;55.55
78149;BME280;67396;42.664;23.382;2024-02-15T09:53:57;95489.66;;;5.14;55.86
78149;BME280;67396;42.664;23.382;2024-02-15T09:56:24;95482.84;;;5.08;55.39
78149;BME280;67396;42.664;23.382;2024-02-15T09:58:51;95486.38;;;5.20;55.10
78149;BME280;67396;42.664;23.382;2024-02-15T10:01:19;95474.38;;;5.21;54.54
78149;BME280;67396;42.664;23.382;2024-02-15T10:03:49;95473.91;;;5.19;54.20
78149;BME280;67396;42.664;23.382;2024-02-15T10:06:16;95477.41;;;5.08;55.05
78149;BME280;67396;42.664;23.382;2024-02-15T10:08:44;95469.72;;;5.22;54.95
78149;BME280;67396;42.664;23.382;2024-02-15T10:11:10;95479.72;;;5.30;54.92
78149;BME280;67396;42.664;23.382;2024-02-15T10:13:36;95466.81;;;5.27;54.81
78149;BME280;67396;42.664;23.382;2024-02-15T10:16:16;95461.13;;;5.68;54.11
78149;BME280;67396;42.664;23.382;2024-02-15T10:18:42;95454.34;;;5.62;54.39
78149;BME280;67396;42.664;23.382;2024-02-15T10:21:08;95452.06;;;5.52;53.36
78149;BME280;67396;42.664;23.382;2024-02-15T10:23:33;95455.47;;;5.61;53.95
78149;BME280;67396;42.664;23.382;2024-02-15T10:25:59;95450.44;;;5.63;53.91
78149;BME280;67396;42.664;23.382;2024-02-15T10:28:26;95447.97;;;5.71;54.09
78149;BME280;67396;42.664;23.382;2024-02-15T10:30:54;95443.41;;;5.87;54.00
78149;BME280;67396;42.664;23.382;2024-02-15T10:33:26;95440.94;;;5.70;54.14
78149;BME280;67396;42.664;23.382;2024-02-15T10:36:07;95432.44;;;5.71;53.37
78149;BME280;67396;42.664;23.382;2024-02-15T10:38:39;95422.88;;;5.65;53.51
78149;BME280;67396;42.664;23.382;2024-02-15T10:41:06;95426.88;;;5.67;53.75
78149;BME280;67396;42.664;23.382;2024-02-15T10:43:35;95417.78;;;5.63;53.68
78149;BME280;67396;42.664;23.382;2024-02-15T10:46:04;95414.84;;;5.56;54.49
78149;BME280;67396;42.664;23.382;2024-02-15T10:48:29;95416.44;;;5.70;54.69
78149;BME280;67396;42.664;23.382;2024-02-15T10:50:57;95420.50;;;5.76;54.36
78149;BME280;67396;42.664;23.382;2024-02-15T10:53:26;95415.38;;;5.74;53.04
78149;BME280;67396;42.664;23.382;2024-02-15T10:58:25;95414.03;;;5.80;53.27
78149;BME280;67396;42.664;23.382;2024-02-15T11:00:54;95419.38;;;5.77;52.64
78149;BME280;67396;42.664;23.382;2024-02-15T11:03:36;95414.72;;;5.77;53.24
78149;BME280;67396;42.664;23.382;2024-02-15T11:06:02;95416.75;;;5.92;53.08
78149;BME280;67396;42.664;23.382;2024-02-15T11:08:30;95411.44;;;5.96;52.88
78149;BME280;67396;42.664;23.382;2024-02-15T11:10:56;95412.50;;;6.07;52.53
78149;BME280;67396;42.664;23.382;2024-02-15T11:13:24;95397.75;;;6.08;53.42
78149;BME280;67396;42.664;23.382;2024-02-15T11:15:51;95397.28;;;6.18;53.36
78149;BME280;67396;42.664;23.382;2024-02-15T11:18:47;95402.22;;;6.28;53.40
78149;BME280;67396;42.664;23.382;2024-02-15T11:21:55;95397.97;;;6.15;52.21
78149;BME280;67396;42.664;23.382;2024-02-15T11:24:30;95396.38;;;6.14;52.67
78149;BME280;67396;42.664;23.382;2024-02-15T11:27:05;95399.13;;;6.14;52.49
78149;BME280;67396;42.664;23.382;2024-02-15T11:32:48;95396.66;;;6.25;52.24
78149;BME280;67396;42.664;23.382;2024-02-15T11:35:20;95402.88;;;6.37;52.30
78149;BME280;67396;42.664;23.382;2024-02-15T11:40:27;95395.16;;;6.39;53.54
78149;BME280;67396;42.664;23.382;2024-02-15T11:42:58;95395.16;;;6.39;52.37
78149;BME280;67396;42.664;23.382;2024-02-15T11:45:25;95391.72;;;6.42;52.65
78149;BME280;67396;42.664;23.382;2024-02-15T11:47:52;95397.06;;;6.67;51.93
78149;BME280;67396;42.664;23.382;2024-02-15T11:50:20;95395.66;;;6.73;51.76
78149;BME280;67396;42.664;23.382;2024-02-15T11:52:47;95387.50;;;6.73;51.96
78149;BME280;67396;42.664;23.382;2024-02-15T11:55:17;95383.13;;;6.84;51.47
78149;BME280;67396;42.664;23.382;2024-02-15T11:57:54;95383.00;;;6.96;51.92
78149;BME280;67396;42.664;23.382;2024-02-15T12:00:26;95385.56;;;7.05;51.14
78149;BME280;67396;42.664;23.382;2024-02-15T12:03:13;95376.88;;;6.99;51.08
78149;BME280;67396;42.664;23.382;2024-02-15T12:05:58;95372.81;;;6.93;51.30
78149;BME280;67396;42.664;23.382;2024-02-15T12:08:50;95369.72;;;6.79;51.56
78149;BME280;67396;42.664;23.382;2024-02-15T12:11:34;95371.84;;;6.86;51.73
78149;BME280;67396;42.664;23.382;2024-02-15T12:17:40;95366.47;;;7.05;51.20
78149;BME280;67396;42.664;23.382;2024-02-15T12:20:25;95362.88;;;7.16;51.33
78149;BME280;67396;42.664;23.382;2024-02-15T12:22:51;95360.03;;;7.13;51.50
78149;BME280;67396;42.664;23.382;2024-02-15T12:25:18;95356.19;;;6.98;51.46
78149;BME280;67396;42.664;23.382;2024-02-15T12:27:46;95370.00;;;7.05;51.13
78149;BME280;67396;42.664;23.382;2024-02-15T12:30:18;95362.59;;;7.06;51.90
78149;BME280;67396;42.664;23.382;2024-02-15T12:32:48;95361.97;;;7.12;51.42
78149;BME280;67396;42.664;23.382;2024-02-15T12:35:14;95360.59;;;7.18;51.63
78149;BME280;67396;42.664;23.382;2024-02-15T12:37:48;95360.47;;;7.31;51.70
78149;BME280;67396;42.664;23.382;2024-02-15T12:40:19;95353.22;;;7.54;51.19
78149;BME280;67396;42.664;23.382;2024-02-15T12:42:45;95350.94;;;7.56;51.12
78149;BME280;67396;42.664;23.382;2024-02-15T12:45:21;95346.44;;;7.48;51.13
78149;BME280;67396;42.664;23.382;2024-02-15T12:47:51;95346.09;;;7.49;50.55
78149;BME280;67396;42.664;23.382;2024-02-15T12:50:18;95342.06;;;7.43;50.64
78149;BME280;67396;42.664;23.382;2024-02-15T12:52:46;95344.19;;;7.34;50.77
78149;BME280;67396;42.664;23.382;2024-02-15T12:55:17;95339.50;;;7.35;51.59
78149;BME280;67396;42.664;23.382;2024-02-15T12:57:46;95346.03;;;7.46;51.30
78149;BME280;67396;42.664;23.382;2024-02-15T13:00:18;95345.75;;;7.51;51.33
78149;BME280;67396;42.664;23.382;2024-02-15T13:02:45;95342.66;;;7.52;51.26
78149;BME280;67396;42.664;23.382;2024-02-15T13:05:11;95345.56;;;7.44;51.64
78149;BME280;67396;42.664;23.382;2024-02-15T13:07:37;95341.59;;;7.41;51.89
78149;BME280;67396;42.664;23.382;2024-02-15T13:10:04;95344.69;;;7.40;51.68
78149;BME280;67396;42.664;23.382;2024-02-15T13:12:35;95337.38;;;7.44;52.35
78149;BME280;67396;42.664;23.382;2024-02-15T13:15:05;95334.47;;;7.52;51.65
78149;BME280;67396;42.664;23.382;2024-02-15T13:17:32;95332.16;;;7.54;50.88